createdAt,value
2019-05-19T00:00:05.625Z,77.81
2019-05-19T00:01:05.584Z,78.52
2019-05-19T00:02:05.583Z,79.74
2019-05-19T00:03:05.595Z,79.84
2019-05-19T00:04:05.614Z,80.69
2019-05-19T00:05:05.548Z,80.96
2019-05-19T00:06:05.551Z,80.79
2019-05-19T00:07:05.532Z,81.20
2019-05-19T00:08:05.546Z,81.60
2019-05-19T00:09:05.507Z,81.10
2019-05-19T00:10:05.532Z,81.54
2019-05-19T00:11:05.494Z,81.65
2019-05-19T00:12:05.461Z,81.04
2019-05-19T00:13:05.531Z,81.27
2019-05-19T00:14:05.487Z,82.09
2019-05-19T00:15:05.436Z,81.38
2019-05-19T00:16:05.410Z,82.54
2019-05-19T00:17:05.438Z,83.25
2019-05-19T00:18:05.407Z,83.35
2019-05-19T00:19:05.425Z,82.94
2019-05-19T00:20:05.378Z,83.76
2019-05-19T00:21:05.394Z,84.67
2019-05-19T00:22:05.344Z,84.61
2019-05-19T00:23:05.330Z,84.78
2019-05-19T00:24:05.350Z,84.06
2019-05-19T00:25:05.314Z,84.61
2019-05-19T00:26:05.310Z,84.72
2019-05-19T00:27:34.033Z,84.00
2019-05-19T00:28:35.061Z,84.92
2019-05-19T00:29:35.000Z,85.47
2019-05-19T00:30:35.020Z,85.37
2019-05-19T00:31:34.995Z,85.88
2019-05-19T00:32:34.986Z,86.08
2019-05-19T00:33:34.989Z,86.49
2019-05-19T00:34:34.956Z,86.49
2019-05-19T00:35:35.034Z,86.18
2019-05-19T00:36:34.958Z,86.65
2019-05-19T00:37:34.968Z,86.86
2019-05-19T00:38:34.950Z,86.04
2019-05-19T00:39:34.918Z,85.94
2019-05-19T00:40:34.913Z,85.94
2019-05-19T00:41:34.884Z,85.98
2019-05-19T00:42:34.872Z,86.08
2019-05-19T00:43:34.889Z,86.08
2019-05-19T00:44:34.884Z,86.08
2019-05-19T00:45:34.842Z,85.77
2019-05-19T00:46:34.843Z,86.94
2019-05-19T00:47:34.842Z,86.80
2019-05-19T00:48:34.795Z,87.35
2019-05-19T00:49:41.286Z,86.94
2019-05-19T00:50:34.786Z,86.73
2019-05-19T00:51:34.792Z,86.83
2019-05-19T00:52:34.765Z,86.73
2019-05-19T00:53:34.769Z,87.04
2019-05-19T00:54:34.743Z,87.45
2019-05-19T00:55:34.742Z,87.45
2019-05-19T00:56:34.729Z,87.24
2019-05-19T00:57:34.719Z,87.30
2019-05-19T00:58:34.693Z,87.30
2019-05-19T00:59:34.711Z,87.20
2019-05-19T01:00:34.666Z,87.51
2019-05-19T01:01:34.668Z,87.10
2019-05-19T01:02:34.651Z,86.49
2019-05-19T01:03:34.635Z,87.61
2019-05-19T01:04:34.641Z,87.20
2019-05-19T01:05:34.615Z,87.20
2019-05-19T01:06:34.593Z,87.41
2019-05-19T01:07:34.604Z,88.12
2019-05-19T01:08:34.571Z,87.26
2019-05-19T01:09:34.602Z,87.57
2019-05-19T01:10:34.560Z,87.16
2019-05-19T01:11:34.546Z,86.76
2019-05-19T01:12:34.555Z,86.21
2019-05-19T01:13:34.523Z,86.30
2019-05-19T01:14:34.538Z,85.90
2019-05-19T01:15:34.520Z,85.90
2019-05-19T01:16:34.535Z,86.10
2019-05-19T01:17:34.474Z,86.00
2019-05-19T01:18:34.490Z,85.08
2019-05-19T01:19:34.473Z,85.28
2019-05-19T01:20:34.445Z,84.98
2019-05-19T01:21:34.452Z,84.88
2019-05-19T01:22:34.440Z,86.10
2019-05-19T01:23:34.418Z,86.15
2019-05-19T01:24:34.417Z,86.15
2019-05-19T01:25:34.409Z,86.86
2019-05-19T01:26:34.425Z,86.65
2019-05-19T01:27:34.410Z,86.45
2019-05-19T01:28:34.355Z,86.18
2019-05-19T01:29:34.349Z,86.76
2019-05-19T01:30:34.340Z,87.71
2019-05-19T01:31:34.342Z,87.20
2019-05-19T01:32:34.334Z,87.20
2019-05-19T01:33:34.345Z,87.51
2019-05-19T01:34:34.307Z,87.24
2019-05-19T01:35:34.294Z,87.45
2019-05-19T01:36:34.284Z,86.88
2019-05-19T01:37:34.309Z,87.29
2019-05-19T01:38:34.263Z,88.51
2019-05-19T01:39:34.263Z,88.31
2019-05-19T01:40:34.246Z,88.35
2019-05-19T01:41:34.470Z,88.92
2019-05-19T01:42:34.248Z,89.47
2019-05-19T01:43:34.185Z,89.58
2019-05-19T01:44:34.182Z,89.58
2019-05-19T01:45:34.179Z,89.06
2019-05-19T01:46:34.175Z,89.98
2019-05-19T01:47:34.140Z,90.08
2019-05-19T01:48:34.143Z,90.08
2019-05-19T01:49:34.151Z,90.19
2019-05-19T01:50:34.119Z,90.59
2019-05-19T01:51:34.133Z,90.12
2019-05-19T01:52:34.094Z,90.64
2019-05-19T01:53:34.098Z,90.74
2019-05-19T01:54:34.794Z,90.53
2019-05-19T01:55:34.080Z,90.23
2019-05-19T01:56:34.047Z,91.19
2019-05-19T01:57:34.053Z,91.60
2019-05-19T01:58:34.023Z,91.25
2019-05-19T01:59:34.011Z,91.05
2019-05-19T02:00:34.014Z,92.11
2019-05-19T02:01:33.988Z,91.66
2019-05-19T02:02:33.970Z,91.56
2019-05-19T02:03:33.957Z,91.66
2019-05-19T02:04:33.959Z,91.60
2019-05-19T02:05:33.960Z,92.01
2019-05-19T02:06:33.975Z,92.21
2019-05-19T02:07:33.964Z,92.93
2019-05-19T02:08:33.910Z,93.44
2019-05-19T02:09:33.907Z,93.19
2019-05-19T02:10:33.899Z,93.40
2019-05-19T02:11:33.897Z,92.74
2019-05-19T02:12:33.874Z,91.92
2019-05-19T02:13:33.869Z,91.72
2019-05-19T02:14:33.835Z,91.72
2019-05-19T02:15:33.846Z,90.90
2019-05-19T02:16:33.825Z,91.20
2019-05-19T02:17:33.840Z,91.20
2019-05-19T02:18:33.846Z,91.31
2019-05-19T02:19:33.786Z,91.11
2019-05-19T02:20:34.154Z,91.11
2019-05-19T02:21:33.760Z,90.90
2019-05-19T02:22:33.758Z,91.31
2019-05-19T02:23:33.743Z,90.55
2019-05-19T02:24:33.725Z,90.35
2019-05-19T02:25:33.763Z,90.25
2019-05-19T02:26:33.710Z,90.45
2019-05-19T02:37:57.050Z,90.19
2019-05-19T02:38:57.929Z,90.49
2019-05-19T02:39:57.919Z,90.39
2019-05-19T02:40:57.925Z,90.49
2019-05-19T02:41:57.893Z,91.00
2019-05-19T02:42:57.892Z,91.20
2019-05-19T02:43:57.865Z,91.05
2019-05-19T02:44:57.869Z,91.72
2019-05-19T02:45:57.886Z,91.52
2019-05-19T02:46:57.845Z,91.61
2019-05-19T02:47:57.842Z,91.76
2019-05-19T02:48:57.806Z,91.05
2019-05-19T02:49:57.811Z,92.13
2019-05-19T02:50:57.825Z,91.96
2019-05-19T02:51:57.807Z,91.66
2019-05-19T02:52:57.764Z,92.07
2019-05-19T02:53:57.760Z,91.56
2019-05-19T02:54:57.756Z,92.21
2019-05-19T02:55:57.756Z,91.76
2019-05-19T02:56:57.717Z,91.80
2019-05-19T02:57:57.726Z,91.39
2019-05-19T02:58:57.700Z,91.60
2019-05-19T02:59:57.725Z,92.05
2019-05-19T03:00:57.695Z,91.85
2019-05-19T03:01:57.668Z,92.46
2019-05-19T03:02:57.667Z,92.87
2019-05-19T03:03:57.658Z,92.91
2019-05-19T03:04:57.629Z,93.48
2019-05-19T03:05:57.651Z,93.73
2019-05-19T03:06:57.615Z,94.24
2019-05-19T03:07:57.606Z,93.84
2019-05-19T03:08:57.596Z,94.81
2019-05-19T03:09:57.573Z,94.71
2019-05-19T03:10:57.590Z,94.51
2019-05-19T03:11:57.556Z,94.71
2019-05-19T03:12:57.547Z,94.81
2019-05-19T03:13:57.547Z,94.77
2019-05-19T03:14:57.527Z,93.95
2019-05-19T03:15:57.524Z,93.79
2019-05-19T03:16:57.513Z,94.20
2019-05-19T03:17:57.491Z,93.89
2019-05-19T03:18:57.483Z,94.20
2019-05-19T03:19:57.521Z,94.40
2019-05-19T03:21:10.574Z,94.20
2019-05-19T03:21:57.489Z,94.81
2019-05-19T03:22:57.460Z,94.51
2019-05-19T03:23:57.438Z,94.67
2019-05-19T03:24:57.405Z,94.26
2019-05-19T03:25:57.432Z,94.15
2019-05-19T03:26:57.386Z,93.85
2019-05-19T03:27:57.479Z,93.03
2019-05-19T03:28:57.393Z,93.24
2019-05-19T03:29:58.208Z,93.59
2019-05-19T03:30:57.388Z,92.87
2019-05-19T03:31:57.744Z,93.48
2019-05-19T03:32:57.413Z,93.48
2019-05-19T03:33:58.248Z,93.69
2019-05-19T03:34:58.208Z,93.89
2019-05-19T03:35:57.430Z,93.73
2019-05-19T03:36:57.349Z,94.14
2019-05-19T03:37:57.412Z,94.20
2019-05-19T03:38:57.314Z,93.79
2019-05-19T03:39:57.262Z,94.14
2019-05-19T03:40:57.245Z,93.79
2019-05-19T03:41:57.268Z,93.84
2019-05-19T03:42:57.231Z,94.45
2019-05-19T03:43:57.230Z,94.30
2019-05-19T03:44:57.197Z,94.30
2019-05-19T03:45:57.186Z,94.71
2019-05-19T03:46:57.196Z,94.10
2019-05-19T03:47:57.161Z,94.10
2019-05-19T03:48:57.159Z,94.20
2019-05-19T03:49:57.134Z,93.89
2019-05-19T03:50:57.154Z,94.30
2019-05-19T03:51:57.707Z,94.40
2019-05-19T03:52:57.117Z,94.20
2019-05-19T03:53:57.106Z,93.93
2019-05-19T03:54:57.098Z,93.84
2019-05-19T03:55:57.084Z,93.84
2019-05-19T03:56:57.069Z,93.84
2019-05-19T03:57:57.065Z,94.08
2019-05-19T03:58:57.077Z,94.04
2019-05-19T03:59:57.031Z,94.70
2019-05-19T04:00:57.045Z,94.29
2019-05-19T04:01:57.751Z,95.06
2019-05-19T04:02:57.010Z,94.90
2019-05-19T04:03:56.993Z,95.00
2019-05-19T04:04:56.985Z,94.39
2019-05-19T04:05:56.984Z,95.47
2019-05-19T04:06:56.996Z,95.88
2019-05-19T04:07:56.953Z,95.82
2019-05-19T04:08:56.959Z,95.92
2019-05-19T04:09:56.929Z,95.37
2019-05-19T04:10:56.906Z,95.57
2019-05-19T04:11:56.934Z,95.98
2019-05-19T04:12:56.885Z,95.98
2019-05-19T04:13:56.979Z,96.08
2019-05-19T04:14:56.871Z,95.88
2019-05-19T04:15:56.871Z,95.67
2019-05-19T04:16:56.876Z,95.53
2019-05-19T04:17:56.844Z,96.04
2019-05-19T04:18:56.835Z,96.04
2019-05-19T04:19:56.809Z,95.53
2019-05-19T04:20:56.801Z,96.04
2019-05-19T04:21:56.825Z,95.73
2019-05-19T04:22:56.788Z,95.32
2019-05-19T04:23:56.821Z,95.53
2019-05-19T04:24:56.743Z,95.73
2019-05-19T04:25:56.749Z,95.48
2019-05-19T04:26:56.764Z,95.38
2019-05-19T04:27:56.722Z,95.38
2019-05-19T04:28:56.719Z,95.28
2019-05-19T04:29:56.717Z,95.07
2019-05-19T04:30:56.688Z,95.18
2019-05-19T04:31:56.716Z,94.26
2019-05-19T04:32:56.656Z,94.46
2019-05-19T04:33:56.673Z,94.62
2019-05-19T04:35:57.550Z,94.62
2019-05-19T04:36:56.640Z,94.82
2019-05-19T04:39:05.897Z,93.70
2019-05-19T04:40:06.786Z,93.55
2019-05-19T04:41:06.779Z,93.45
2019-05-19T04:42:06.805Z,92.84
2019-05-19T04:43:06.787Z,92.84
2019-05-19T04:44:06.737Z,92.84
2019-05-19T04:45:06.735Z,92.23
2019-05-19T04:46:06.730Z,91.78
2019-05-19T04:47:06.764Z,91.78
2019-05-19T04:48:09.358Z,91.78
2019-05-19T04:49:06.693Z,91.83
2019-05-19T04:50:06.713Z,91.63
2019-05-19T04:51:06.665Z,91.53
2019-05-19T04:52:07.507Z,90.92
2019-05-19T04:53:06.643Z,90.57
2019-05-19T04:54:06.623Z,90.26
2019-05-19T04:55:06.618Z,89.55
2019-05-19T04:56:06.608Z,89.20
2019-05-19T04:57:06.620Z,88.49
2019-05-19T04:58:06.592Z,88.59
2019-05-19T04:59:06.574Z,87.73
2019-05-19T05:00:06.578Z,86.71
2019-05-19T05:01:06.578Z,86.88
2019-05-19T05:02:06.571Z,85.75
2019-05-19T05:03:06.540Z,86.06
2019-05-19T05:04:06.564Z,85.82
2019-05-19T05:05:06.530Z,85.61
2019-05-19T05:06:06.506Z,84.80
2019-05-19T05:07:06.544Z,85.00
2019-05-19T05:08:06.484Z,85.06
2019-05-19T05:09:06.471Z,84.86
2019-05-19T05:10:06.486Z,84.42
2019-05-19T05:11:06.435Z,84.11
2019-05-19T05:12:06.434Z,84.42
2019-05-19T05:13:06.413Z,84.21
2019-05-19T05:14:06.409Z,83.46
2019-05-19T05:15:06.408Z,82.85
2019-05-19T05:16:06.385Z,81.93
2019-05-19T05:17:06.412Z,82.51
2019-05-19T05:18:06.362Z,81.59
2019-05-19T05:19:06.373Z,81.09
2019-05-19T05:20:06.345Z,81.79
2019-05-19T05:21:06.331Z,81.29
2019-05-19T05:22:19.936Z,81.35
2019-05-19T05:23:06.304Z,80.64
2019-05-19T05:24:06.294Z,81.25
2019-05-19T05:25:06.293Z,80.74
2019-05-19T05:26:06.268Z,80.64
2019-05-19T05:27:06.273Z,80.30
2019-05-19T05:28:06.261Z,79.99
2019-05-19T05:29:06.265Z,80.40
2019-05-19T05:30:06.243Z,79.65
2019-05-19T05:31:06.215Z,80.19
2019-05-19T05:32:06.221Z,79.55
2019-05-19T05:33:06.197Z,79.35
2019-05-19T05:34:06.180Z,79.14
2019-05-19T05:35:06.182Z,79.51
2019-05-19T05:36:06.219Z,78.40
2019-05-19T05:37:06.212Z,79.21
2019-05-19T05:38:06.150Z,78.56
2019-05-19T05:39:06.154Z,78.36
2019-05-19T05:40:06.153Z,79.68
2019-05-19T05:41:06.101Z,78.70
2019-05-19T05:42:06.142Z,79.07
2019-05-19T05:43:06.088Z,79.00
2019-05-19T05:44:06.105Z,79.41
2019-05-19T05:45:06.112Z,79.41
2019-05-19T05:46:06.092Z,79.11
2019-05-19T05:47:06.077Z,79.27
2019-05-19T05:48:06.068Z,79.27
2019-05-19T05:49:06.578Z,78.56
2019-05-19T05:50:06.029Z,78.33
2019-05-19T05:51:06.001Z,78.83
2019-05-19T05:52:06.028Z,78.39
2019-05-19T05:53:05.994Z,78.19
2019-05-19T05:54:05.966Z,77.28
2019-05-19T05:55:05.969Z,76.63
2019-05-19T05:56:05.959Z,76.73
2019-05-19T05:57:05.983Z,76.90
2019-05-19T05:58:05.979Z,76.05
2019-05-19T05:59:05.959Z,75.14
2019-05-19T06:00:05.930Z,75.48
2019-05-19T06:01:05.886Z,76.05
2019-05-19T06:02:05.888Z,75.55
2019-05-19T06:03:05.913Z,74.70
2019-05-19T06:04:05.877Z,74.66
2019-05-19T06:05:05.850Z,74.66
2019-05-19T06:06:05.836Z,72.95
2019-05-19T06:07:05.845Z,73.42
2019-05-19T06:08:05.852Z,73.62
2019-05-19T06:09:05.802Z,72.48
2019-05-19T06:10:05.810Z,72.68
2019-05-19T06:11:05.766Z,71.17
2019-05-19T06:12:05.769Z,72.17
2019-05-19T06:13:05.781Z,71.60
2019-05-19T06:14:05.794Z,72.17
2019-05-19T06:15:05.724Z,71.13
2019-05-19T06:16:05.712Z,72.17
2019-05-19T06:17:05.723Z,71.13
2019-05-19T06:18:05.788Z,70.96
2019-05-19T06:19:05.758Z,70.93
2019-05-19T06:20:05.813Z,71.13
2019-05-19T06:21:05.667Z,71.03
2019-05-19T06:22:05.654Z,70.86
2019-05-19T06:23:05.687Z,71.53
2019-05-19T06:24:05.635Z,71.33
2019-05-19T06:25:05.657Z,70.83
2019-05-19T06:26:05.612Z,70.22
2019-05-19T06:27:05.617Z,70.83
2019-05-19T06:28:05.633Z,70.73
2019-05-19T06:29:05.575Z,71.13
2019-05-19T06:30:08.483Z,71.23
2019-05-19T06:31:05.563Z,70.73
2019-05-19T06:32:05.542Z,70.29
2019-05-19T06:33:05.568Z,71.10
2019-05-19T06:34:05.514Z,70.36
2019-05-19T06:35:06.083Z,70.15
2019-05-19T06:36:05.496Z,70.15
2019-05-19T06:37:05.485Z,70.56
2019-05-19T06:38:05.498Z,70.69
2019-05-19T06:40:14.167Z,70.15
2019-05-19T06:41:15.188Z,70.89
2019-05-19T06:42:15.163Z,71.10
2019-05-19T06:43:15.165Z,72.41
2019-05-19T06:44:15.136Z,70.26
2019-05-19T06:45:15.119Z,69.15
2019-05-19T06:46:15.132Z,70.12
2019-05-19T06:47:15.131Z,67.77
2019-05-19T06:48:15.109Z,68.08
2019-05-19T06:49:15.104Z,67.27
2019-05-19T06:50:15.100Z,67.77
2019-05-19T06:51:15.062Z,67.17
2019-05-19T06:52:15.065Z,68.01
2019-05-19T06:53:15.174Z,68.41
2019-05-19T06:54:15.032Z,69.12
2019-05-19T06:55:15.050Z,68.21
2019-05-19T06:56:15.013Z,68.18
2019-05-19T06:57:14.997Z,68.68
2019-05-19T06:58:15.022Z,68.15
2019-05-19T06:59:15.031Z,67.03
2019-05-19T07:00:14.974Z,67.94
2019-05-19T07:01:14.945Z,68.58
2019-05-19T07:02:14.941Z,69.12
2019-05-19T07:03:14.954Z,68.18
2019-05-19T07:04:14.910Z,68.18
2019-05-19T07:05:14.899Z,67.44
2019-05-19T07:06:14.892Z,66.67
2019-05-19T07:07:14.889Z,66.20
2019-05-19T07:08:14.887Z,67.51
2019-05-19T07:09:14.877Z,66.17
2019-05-19T07:10:14.861Z,65.44
2019-05-19T07:11:14.840Z,65.07
2019-05-19T07:12:14.836Z,63.81
2019-05-19T07:13:14.832Z,62.37
2019-05-19T07:14:14.812Z,61.17
2019-05-19T07:15:14.854Z,62.47
2019-05-19T07:16:14.794Z,62.23
2019-05-19T07:17:14.774Z,63.53
2019-05-19T07:18:14.797Z,64.43
2019-05-19T07:19:14.761Z,64.10
2019-05-19T07:20:14.767Z,63.49
2019-05-19T07:21:14.729Z,63.79
2019-05-19T07:22:14.721Z,63.46
2019-05-19T07:23:27.367Z,63.06
2019-05-19T07:24:14.730Z,62.03
2019-05-19T07:25:14.678Z,61.19
2019-05-19T07:26:14.674Z,61.19
2019-05-19T07:27:14.660Z,61.07
2019-05-19T07:28:14.646Z,59.64
2019-05-19T07:29:14.654Z,59.44
2019-05-19T07:30:14.625Z,59.44
2019-05-19T07:31:14.624Z,59.70
2019-05-19T07:32:14.619Z,58.30
2019-05-19T07:33:14.603Z,59.46
2019-05-19T07:34:14.610Z,59.77
2019-05-19T07:35:14.570Z,59.64
2019-05-19T07:36:14.583Z,59.23
2019-05-19T07:37:14.564Z,59.20
2019-05-19T07:38:14.548Z,58.48
2019-05-19T07:39:14.567Z,58.68
2019-05-19T07:40:14.524Z,58.78
2019-05-19T07:41:14.514Z,58.98
2019-05-19T07:42:14.507Z,58.85
2019-05-19T07:43:14.530Z,58.78
2019-05-19T07:44:14.503Z,58.87
2019-05-19T07:45:14.472Z,58.58
2019-05-19T07:46:14.466Z,58.35
2019-05-19T07:47:14.447Z,57.24
2019-05-19T07:48:14.442Z,57.82
2019-05-19T07:49:14.444Z,56.92
2019-05-19T07:50:14.446Z,57.42
2019-05-19T07:51:14.401Z,57.55
2019-05-19T07:52:14.400Z,58.15
2019-05-19T07:53:14.421Z,57.62
2019-05-19T07:54:14.400Z,56.70
2019-05-19T07:55:14.364Z,56.27
2019-05-19T07:56:14.360Z,56.67
2019-05-19T07:57:14.375Z,55.77
2019-05-19T07:58:14.339Z,56.07
2019-05-19T07:59:14.328Z,55.97
2019-05-19T08:00:14.325Z,56.29
2019-05-19T08:01:14.323Z,56.29
2019-05-19T08:02:14.299Z,56.62
2019-05-19T08:03:14.286Z,57.12
2019-05-19T08:04:14.311Z,56.89
2019-05-19T08:05:14.251Z,56.59
2019-05-19T08:06:14.239Z,56.20
2019-05-19T08:07:14.253Z,56.37
2019-05-19T08:08:14.242Z,56.70
2019-05-19T08:09:14.220Z,56.09
2019-05-19T08:10:14.235Z,56.39
2019-05-19T08:11:14.231Z,56.59
2019-05-19T08:12:14.180Z,56.57
2019-05-19T08:13:14.176Z,55.27
2019-05-19T08:14:14.152Z,56.79
2019-05-19T08:15:14.160Z,56.20
2019-05-19T08:16:14.142Z,55.79
2019-05-19T08:17:14.140Z,55.14
2019-05-19T08:18:14.124Z,55.24
2019-05-19T08:19:14.120Z,55.54
2019-05-19T08:20:14.136Z,55.07
2019-05-19T08:21:14.088Z,56.12
2019-05-19T08:22:14.934Z,56.62
2019-05-19T08:23:14.072Z,57.52
2019-05-19T08:24:14.060Z,56.59
2019-05-19T08:25:14.048Z,55.27
2019-05-19T08:26:14.067Z,55.54
2019-05-19T08:27:14.047Z,55.44
2019-05-19T08:28:14.054Z,54.59
2019-05-19T08:29:14.043Z,53.89
2019-05-19T08:30:14.017Z,53.86
2019-05-19T08:31:14.009Z,53.34
2019-05-19T08:32:13.979Z,53.24
2019-05-19T08:33:13.975Z,54.06
2019-05-19T08:34:13.939Z,53.44
2019-05-19T08:35:13.953Z,53.14
2019-05-19T08:36:13.930Z,53.02
2019-05-19T08:37:13.914Z,52.62
2019-05-19T08:38:13.895Z,53.22
2019-05-19T08:39:13.887Z,52.51
2019-05-19T08:41:23.081Z,51.92
2019-05-19T08:42:24.056Z,52.34
2019-05-19T08:43:24.036Z,52.51
2019-05-19T08:44:24.028Z,53.09
2019-05-19T08:45:24.030Z,51.40
2019-05-19T08:46:24.013Z,52.12
2019-05-19T08:47:23.994Z,51.72
2019-05-19T08:48:23.995Z,52.99
2019-05-19T08:49:24.010Z,51.89
2019-05-19T08:50:23.978Z,51.40
2019-05-19T08:51:23.949Z,51.59
2019-05-19T08:52:23.954Z,51.70
2019-05-19T08:53:23.964Z,52.62
2019-05-19T08:54:23.923Z,52.32
2019-05-19T08:55:23.921Z,52.09
2019-05-19T08:56:23.930Z,51.37
2019-05-19T08:57:23.877Z,51.37
2019-05-19T08:58:23.881Z,51.67
2019-05-19T08:59:23.884Z,52.07
2019-05-19T09:00:23.875Z,51.97
2019-05-19T09:01:23.843Z,51.57
2019-05-19T09:02:23.827Z,52.04
2019-05-19T09:03:23.821Z,51.75
2019-05-19T09:04:23.808Z,50.85
2019-05-19T09:05:23.821Z,50.13
2019-05-19T09:06:23.785Z,50.23
2019-05-19T09:07:23.772Z,50.93
2019-05-19T09:08:23.830Z,50.01
2019-05-19T09:09:23.757Z,49.23
2019-05-19T09:10:23.771Z,50.43
2019-05-19T09:11:23.745Z,49.93
2019-05-19T09:12:23.723Z,49.31
2019-05-19T09:13:23.702Z,49.80
2019-05-19T09:14:23.721Z,49.33
2019-05-19T09:15:23.703Z,50.55
2019-05-19T09:16:23.689Z,50.55
2019-05-19T09:17:23.682Z,49.93
2019-05-19T09:18:23.657Z,49.93
2019-05-19T09:19:23.656Z,49.55
2019-05-19T09:20:23.634Z,49.55
2019-05-19T09:21:23.664Z,49.73
2019-05-19T09:22:23.620Z,49.51
2019-05-19T09:23:23.597Z,49.71
2019-05-19T09:24:30.437Z,48.57
2019-05-19T09:25:23.581Z,48.86
2019-05-19T09:26:23.599Z,47.67
2019-05-19T09:27:23.581Z,47.77
2019-05-19T09:28:23.544Z,48.61
2019-05-19T09:29:23.547Z,48.79
2019-05-19T09:30:23.580Z,48.89
2019-05-19T09:31:23.543Z,47.77
2019-05-19T09:32:23.506Z,47.28
2019-05-19T09:33:23.486Z,47.77
2019-05-19T09:34:23.502Z,47.77
2019-05-19T09:35:23.463Z,47.80
2019-05-19T09:36:23.506Z,47.57
2019-05-19T09:37:23.469Z,47.38
2019-05-19T09:38:23.451Z,46.16
2019-05-19T09:39:23.440Z,45.54
2019-05-19T09:40:26.522Z,45.39
2019-05-19T09:41:23.443Z,46.78
2019-05-19T09:42:23.400Z,44.99
2019-05-19T09:43:23.403Z,45.01
2019-05-19T09:44:23.382Z,45.63
2019-05-19T09:45:23.355Z,46.05
2019-05-19T09:46:23.472Z,46.75
2019-05-19T09:47:23.346Z,46.97
2019-05-19T09:48:23.354Z,47.47
2019-05-19T09:49:23.314Z,47.66
2019-05-19T09:50:23.321Z,46.95
2019-05-19T09:51:23.362Z,46.13
2019-05-19T09:52:23.283Z,46.83
2019-05-19T09:53:23.290Z,47.34
2019-05-19T09:54:23.267Z,47.47
2019-05-19T09:55:23.387Z,47.37
2019-05-19T09:56:23.268Z,47.86
2019-05-19T09:57:23.235Z,47.96
2019-05-19T09:58:23.255Z,47.54
2019-05-19T09:59:23.223Z,47.56
2019-05-19T10:00:23.203Z,47.49
2019-05-19T10:01:23.218Z,47.71
2019-05-19T10:02:23.206Z,48.93
2019-05-19T10:03:23.160Z,48.58
2019-05-19T10:04:23.171Z,47.86
2019-05-19T10:05:23.148Z,47.66
2019-05-19T10:06:23.139Z,47.86
2019-05-19T10:07:23.142Z,47.34
2019-05-19T10:08:23.111Z,46.83
2019-05-19T10:09:23.144Z,47.62
2019-05-19T10:10:23.113Z,47.22
2019-05-19T10:11:23.152Z,47.74
2019-05-19T10:12:23.086Z,47.25
2019-05-19T10:13:23.063Z,46.97
2019-05-19T10:14:23.056Z,47.86
2019-05-19T10:15:23.048Z,46.87
2019-05-19T10:16:23.037Z,47.27
2019-05-19T10:17:23.042Z,47.27
2019-05-19T10:18:23.007Z,45.95
2019-05-19T10:19:22.992Z,46.47
2019-05-19T10:20:22.985Z,46.08
2019-05-19T10:21:22.995Z,46.17
2019-05-19T10:22:22.993Z,46.25
2019-05-19T10:23:22.961Z,46.72
2019-05-19T10:24:22.939Z,46.50
2019-05-19T10:25:23.451Z,45.39
2019-05-19T10:26:22.918Z,45.27
2019-05-19T10:27:22.927Z,45.47
2019-05-19T10:28:22.904Z,45.68
2019-05-19T10:29:22.880Z,45.90
2019-05-19T10:30:22.871Z,46.60
2019-05-19T10:31:22.866Z,46.48
2019-05-19T10:32:22.918Z,46.66
2019-05-19T10:33:22.845Z,45.56
2019-05-19T10:34:22.856Z,44.83
2019-05-19T10:35:22.812Z,44.04
2019-05-19T10:36:22.819Z,44.41
2019-05-19T10:37:22.839Z,44.23
2019-05-19T10:38:22.776Z,44.85
2019-05-19T10:39:22.778Z,44.95
2019-05-19T10:40:22.763Z,44.13
2019-05-19T10:42:31.953Z,42.39
2019-05-19T10:43:32.933Z,42.79
2019-05-19T10:44:32.931Z,43.98
2019-05-19T10:45:32.911Z,44.37
2019-05-19T10:46:32.902Z,44.95
2019-05-19T10:47:32.911Z,44.15
2019-05-19T10:48:32.872Z,43.84
2019-05-19T10:49:32.868Z,44.25
2019-05-19T10:50:32.852Z,44.57
2019-05-19T10:51:32.853Z,44.67
2019-05-19T10:52:32.853Z,44.97
2019-05-19T10:53:32.822Z,44.57
2019-05-19T10:54:32.815Z,44.20
2019-05-19T10:55:36.437Z,44.81
2019-05-19T10:56:32.806Z,45.23
2019-05-19T10:57:32.808Z,44.93
2019-05-19T10:58:32.769Z,44.93
2019-05-19T10:59:32.768Z,44.81
2019-05-19T11:00:32.745Z,44.22
2019-05-19T11:01:32.738Z,43.40
2019-05-19T11:02:32.744Z,44.00
2019-05-19T11:03:32.724Z,44.27
2019-05-19T11:04:32.708Z,41.67
2019-05-19T11:05:32.697Z,42.35
2019-05-19T11:06:32.697Z,40.86
2019-05-19T11:07:32.690Z,41.77
2019-05-19T11:08:32.673Z,41.28
2019-05-19T11:09:32.656Z,41.28
2019-05-19T11:10:32.632Z,39.69
2019-05-19T11:11:32.630Z,39.90
2019-05-19T11:12:32.640Z,40.50
2019-05-19T11:13:32.711Z,40.11
2019-05-19T11:14:32.599Z,40.50
2019-05-19T11:15:32.595Z,41.82
2019-05-19T11:16:32.587Z,41.61
2019-05-19T11:17:32.565Z,43.78
2019-05-19T11:18:32.574Z,41.99
2019-05-19T11:19:32.542Z,43.01
2019-05-19T11:20:32.530Z,42.21
2019-05-19T11:21:32.527Z,41.44
2019-05-19T11:22:32.506Z,41.83
2019-05-19T11:23:32.511Z,42.23
2019-05-19T11:24:32.485Z,42.53
2019-05-19T11:25:34.310Z,43.62
2019-05-19T11:26:32.473Z,43.20
2019-05-19T11:27:32.461Z,43.48
2019-05-19T11:28:32.466Z,42.49
2019-05-19T11:29:32.436Z,42.17
2019-05-19T11:30:32.422Z,41.85
2019-05-19T11:31:32.429Z,43.74
2019-05-19T11:32:32.427Z,41.71
2019-05-19T11:33:32.745Z,40.12
2019-05-19T11:34:32.400Z,40.74
2019-05-19T11:35:32.372Z,39.87
2019-05-19T11:36:32.367Z,40.66
2019-05-19T11:37:32.350Z,40.96
2019-05-19T11:38:32.372Z,40.86
2019-05-19T11:39:32.329Z,40.58
2019-05-19T11:40:32.317Z,41.55
2019-05-19T11:41:32.317Z,40.74
2019-05-19T11:42:32.316Z,39.83
2019-05-19T11:43:32.308Z,39.15
2019-05-19T11:44:32.286Z,40.17
2019-05-19T11:45:32.260Z,40.07
2019-05-19T11:46:32.263Z,40.56
2019-05-19T11:47:32.247Z,40.86
2019-05-19T11:48:32.266Z,39.75
2019-05-19T11:49:32.250Z,40.56
2019-05-19T11:50:32.212Z,40.58
2019-05-19T11:51:32.209Z,39.98
2019-05-19T11:52:32.191Z,41.38
2019-05-19T11:53:32.216Z,40.66
2019-05-19T11:54:32.165Z,40.84
2019-05-19T11:55:32.184Z,40.05
2019-05-19T11:56:32.160Z,39.65
2019-05-19T11:57:32.150Z,40.07
2019-05-19T11:58:32.147Z,38.40
2019-05-19T11:59:32.149Z,40.19
2019-05-19T12:00:32.148Z,39.71
2019-05-19T12:01:32.111Z,39.29
2019-05-19T12:02:32.108Z,39.39
2019-05-19T12:03:32.093Z,39.39
2019-05-19T12:04:32.111Z,38.90
2019-05-19T12:05:32.099Z,37.79
2019-05-19T12:06:39.409Z,37.17
2019-05-19T12:07:32.051Z,37.35
2019-05-19T12:08:32.035Z,37.34
2019-05-19T12:09:32.049Z,38.15
2019-05-19T12:10:32.019Z,34.76
2019-05-19T12:11:32.012Z,35.85
2019-05-19T12:12:31.990Z,35.75
2019-05-19T12:13:34.823Z,35.95
2019-05-19T12:14:31.992Z,35.55
2019-05-19T12:15:31.971Z,35.14
2019-05-19T12:16:31.957Z,35.16
2019-05-19T12:17:31.930Z,35.44
2019-05-19T12:18:31.940Z,35.34
2019-05-19T12:19:31.932Z,34.86
2019-05-19T12:20:31.899Z,35.67
2019-05-19T12:21:31.893Z,36.26
2019-05-19T12:22:31.881Z,35.65
2019-05-19T12:23:31.866Z,34.84
2019-05-19T12:24:31.875Z,35.73
2019-05-19T12:25:31.846Z,33.84
2019-05-19T12:26:34.709Z,35.30
2019-05-19T12:27:31.855Z,33.92
2019-05-19T12:28:31.859Z,34.73
2019-05-19T12:29:31.859Z,34.73
2019-05-19T12:30:31.821Z,34.34
2019-05-19T12:31:31.788Z,34.45
2019-05-19T12:32:31.782Z,34.45
2019-05-19T12:33:31.770Z,34.13
2019-05-19T12:34:31.765Z,34.25
2019-05-19T12:35:31.772Z,34.63
2019-05-19T12:36:31.737Z,34.13
2019-05-19T12:37:31.722Z,34.34
2019-05-19T12:38:31.696Z,33.95
2019-05-19T12:39:31.736Z,34.64
2019-05-19T12:40:31.684Z,34.73
2019-05-19T12:41:31.667Z,35.32
2019-05-19T12:43:52.154Z,35.53
2019-05-19T12:44:53.117Z,37.55
2019-05-19T12:45:53.104Z,38.15
2019-05-19T12:46:53.063Z,38.84
2019-05-19T12:47:53.049Z,37.73
2019-05-19T12:48:53.082Z,37.83
2019-05-19T12:49:53.069Z,37.71
2019-05-19T12:50:53.022Z,37.99
2019-05-19T12:51:53.010Z,37.08
2019-05-19T12:52:53.005Z,35.30
2019-05-19T12:53:52.993Z,35.73
2019-05-19T12:54:53.031Z,37.34
2019-05-19T12:55:52.965Z,34.84
2019-05-19T12:56:52.957Z,35.46
2019-05-19T12:57:52.947Z,34.95
2019-05-19T12:58:52.940Z,36.24
2019-05-19T12:59:52.948Z,35.55
2019-05-19T13:00:52.916Z,34.97
2019-05-19T13:01:52.897Z,35.65
2019-05-19T13:02:52.920Z,35.85
2019-05-19T13:03:52.881Z,35.35
2019-05-19T13:05:04.367Z,35.55
2019-05-19T13:05:52.894Z,34.94
2019-05-19T13:06:52.860Z,35.44
2019-05-19T13:07:52.836Z,34.63
2019-05-19T13:08:52.843Z,34.63
2019-05-19T13:09:52.983Z,34.73